Time;durP1;ratioP1;P1;durP2;ratioP2;P2;SDS_P1;SDS_P2;PMS_P1;PMS_P2;Temp;Humidity;BMP_temperature;BMP_pressure;BME280_temperature;BME280_humidity;BME280_pressure;Samples;Min_cycle;Max_cycle;Signal;HPM_P1;HPM_P2
2023/03/24 00:01:30;;;;;;;7.90;1.70;;;;;;;11.27;89.62;99659.06;6053323;28;20033;-72
2023/03/24 00:04:26;;;;;;;3.92;2.08;;;;;;;11.28;90.21;99664.16;6052268;28;20037;-74
2023/03/24 00:07:22;;;;;;;4.05;1.90;;;;;;;11.26;90.60;99660.88;6053624;28;20041;-71
2023/03/24 00:10:19;;;;;;;4.53;1.35;;;;;;;11.17;90.82;99650.50;6053048;28;20038;-72
2023/03/24 00:13:15;;;;;;;5.53;1.88;;;;;;;11.09;91.10;99637.25;6052284;28;20030;-72
2023/03/24 00:16:12;;;;;;;4.43;1.98;;;;;;;11.16;91.64;99656.81;6050042;28;20050;-72
2023/03/24 00:19:12;;;;;;;3.08;1.60;;;;;;;11.13;91.61;99655.31;6052612;28;20045;-72
2023/03/24 00:22:13;;;;;;;3.28;1.52;;;;;;;11.13;91.72;99641.22;6050724;28;20065;-73
2023/03/24 00:25:09;;;;;;;4.43;1.70;;;;;;;11.14;91.20;99637.59;6051699;28;20092;-73
2023/03/24 00:28:06;;;;;;;3.83;1.67;;;;;;;11.11;91.60;99628.16;6052702;28;20465;-72
2023/03/24 00:31:03;;;;;;;5.13;1.50;;;;;;;11.17;91.61;99635.38;6052374;28;20029;-72
2023/03/24 00:34:01;;;;;;;3.80;1.90;;;;;;;11.14;92.61;99632.28;6051733;28;20512;-72
2023/03/24 00:36:56;;;;;;;5.90;1.95;;;;;;;11.05;92.33;99606.78;6052106;28;20091;-74
2023/03/24 00:39:51;;;;;;;4.32;1.50;;;;;;;11.14;92.51;99632.28;6052459;28;20037;-72
2023/03/24 00:42:48;;;;;;;3.77;1.87;;;;;;;11.14;92.53;99632.28;6051625;28;20441;-73
2023/03/24 00:45:46;;;;;;;3.25;1.90;;;;;;;11.12;92.82;99613.88;6051719;28;20299;-72
2023/03/24 00:48:42;;;;;;;3.75;1.50;;;;;;;11.11;92.60;99611.41;6051682;28;20056;-72
2023/03/24 00:51:41;;;;;;;8.40;2.30;;;;;;;11.22;92.59;99611.00;6052060;28;20465;-72
2023/03/24 00:54:37;;;;;;;3.72;1.80;;;;;;;11.22;93.20;99611.00;6051590;28;20044;-72
2023/03/24 00:57:33;;;;;;;4.38;1.90;;;;;;;11.29;92.83;99607.44;6052188;28;20477;-72
2023/03/24 01:00:29;;;;;;;4.53;1.77;;;;;;;11.20;93.73;99583.78;6052036;28;20465;-73
2023/03/24 01:03:28;;;;;;;7.05;1.70;;;;;;;11.14;94.12;99577.34;6051588;28;20030;-73
2023/03/24 01:06:23;;;;;;;3.47;1.80;;;;;;;11.19;95.14;99584.81;6051373;28;20112;-72
2023/03/24 01:09:20;;;;;;;5.63;2.10;;;;;;;11.17;95.48;99582.31;6052133;28;20032;-73
2023/03/24 01:12:17;;;;;;;3.47;1.58;;;;;;;11.21;95.61;99583.63;6050970;28;20372;-73
2023/03/24 01:15:16;;;;;;;3.95;2.00;;;;;;;11.11;96.18;99567.13;6051517;28;20037;-72
2023/03/24 01:18:13;;;;;;;3.63;1.88;;;;;;;11.14;96.38;99571.25;6047418;28;20354;-73
2023/03/24 01:21:10;;;;;;;3.17;1.30;;;;;;;11.18;97.05;99564.56;6051595;28;20034;-73
2023/03/24 01:24:05;;;;;;;5.53;1.83;;;;;;;11.11;97.25;99550.38;6051108;28;20366;-73
2023/03/24 01:27:00;;;;;;;5.30;2.05;;;;;;;11.14;97.61;99544.72;6051578;28;20112;-73
2023/03/24 01:30:00;;;;;;;4.57;2.10;;;;;;;11.10;98.15;99538.09;6050636;28;20034;-72
2023/03/24 01:32:56;;;;;;;4.05;2.05;;;;;;;11.12;98.44;99550.19;6050585;28;20139;-73
2023/03/24 01:35:52;;;;;;;4.00;1.73;;;;;;;11.09;98.65;99531.13;6050565;28;20038;-73
2023/03/24 01:38:47;;;;;;;5.43;1.70;;;;;;;11.03;98.60;99508.81;6051452;28;20065;-73
2023/03/24 01:41:42;;;;;;;5.97;2.00;;;;;;;11.21;98.00;99525.25;6051044;28;20042;-72
2023/03/24 01:44:37;;;;;;;4.63;2.00;;;;;;;11.26;97.89;99530.00;6050378;28;20104;-73
2023/03/24 01:47:33;;;;;;;6.30;2.40;;;;;;;11.20;98.41;99522.75;6050423;28;20049;-72
2023/03/24 01:50:28;;;;;;;4.53;2.30;;;;;;;11.18;98.82;99500.88;6051069;28;20114;-72
2023/03/24 01:53:24;;;;;;;5.13;2.00;;;;;;;11.17;98.41;99508.00;6049118;28;20038;-72
2023/03/24 01:56:20;;;;;;;4.75;2.03;;;;;;;11.18;98.37;99493.75;6050619;28;20107;-72
2023/03/24 01:59:22;;;;;;;5.25;2.40;;;;;;;11.16;98.52;99490.47;6050638;28;20022;-74
2023/03/24 02:02:20;;;;;;;4.80;2.40;;;;;;;11.19;99.24;99490.13;6048040;28;20034;-73
2023/03/24 02:05:16;;;;;;;4.72;2.30;;;;;;;11.23;98.71;99491.38;6050358;28;20049;-71
2023/03/24 02:08:20;;;;;;;5.38;2.90;;;;;;;11.28;98.80;99486.34;6050864;28;20393;-74
2023/03/24 02:11:16;;;;;;;7.80;2.63;;;;;;;11.31;99.06;99478.03;6041454;28;20080;-74
2023/03/24 02:14:11;;;;;;;6.13;2.40;;;;;;;11.28;99.02;99474.91;6048942;28;20034;-74
2023/03/24 02:17:22;;;;;;;4.50;2.33;;;;;;;11.36;98.98;99482.78;6050048;28;20398;-75
2023/03/24 02:20:54;;;;;;;4.20;2.10;;;;;;;11.28;99.10;99469.59;6050615;28;20034;-72
2023/03/24 02:24:01;;;;;;;3.70;1.83;;;;;;;11.33;98.98;99452.13;6040296;28;20038;-72
2023/03/24 02:27:09;;;;;;;4.57;2.38;;;;;;;11.34;99.29;99445.81;6048228;28;20045;-72
2023/03/24 02:30:12;;;;;;;4.03;2.17;;;;;;;11.35;98.99;99446.66;6048362;28;20473;-72
2023/03/24 02:33:38;;;;;;;5.03;2.35;;;;;;;11.32;99.28;99447.03;6048810;28;20041;-73
2023/03/24 02:36:36;;;;;;;4.70;2.08;;;;;;;11.36;99.26;99442.97;6041546;28;20034;-74
2023/03/24 02:39:58;;;;;;;3.95;1.98;;;;;;;11.36;99.17;99427.88;6048213;28;20474;-74
2023/03/24 02:43:19;;;;;;;3.53;1.83;;;;;;;11.45;98.48;99428.63;6046352;28;20121;-75
2023/03/24 02:46:24;;;;;;;4.72;2.30;;;;;;;11.48;98.23;99414.16;6046044;28;20076;-73
2023/03/24 02:49:47;;;;;;;4.13;2.20;;;;;;;11.46;98.12;99408.22;6047005;28;20042;-74
2023/03/24 02:52:47;;;;;;;7.10;2.75;;;;;;;11.46;98.86;99411.69;6046765;28;20034;-74
2023/03/24 02:56:08;;;;;;;3.95;2.28;;;;;;;11.44;98.89;99397.75;6050225;28;20084;-73
2023/03/24 02:59:05;;;;;;;6.22;2.45;;;;;;;11.47;98.69;99401.91;6049076;28;20030;-74
2023/03/24 03:02:05;;;;;;;8.40;2.67;;;;;;;11.55;98.18;99389.34;6048637;28;20493;-73
2023/03/24 03:05:12;;;;;;;3.90;2.30;;;;;;;11.49;98.62;99390.09;6047964;28;20400;-74
2023/03/24 03:08:09;;;;;;;5.57;2.80;;;;;;;11.44;98.64;99375.72;6048870;28;20017;-74
2023/03/24 03:11:06;;;;;;;5.97;2.60;;;;;;;11.47;99.27;99404.56;6064420;28;20065;-73
2023/03/24 03:14:11;;;;;;;4.60;2.63;;;;;;;11.42;99.43;99378.56;6046489;28;20053;-73
2023/03/24 03:17:14;;;;;;;7.07;2.88;;;;;;;11.47;99.14;99378.81;6044523;28;20044;-74
2023/03/24 03:20:15;;;;;;;6.40;2.50;;;;;;;11.47;99.98;99378.81;6048861;28;20533;-73
2023/03/24 03:23:13;;;;;;;5.72;2.50;;;;;;;11.44;100.00;99373.06;6047403;28;20065;-74
2023/03/24 03:26:13;;;;;;;4.55;2.85;;;;;;;11.41;99.98;99355.69;6025834;28;20128;-73
2023/03/24 03:29:15;;;;;;;5.20;2.67;;;;;;;11.38;100.00;99340.13;6048409;28;20036;-73
2023/03/24 03:32:14;;;;;;;3.65;1.95;;;;;;;11.47;100.00;99339.00;6047436;28;20038;-73
2023/03/24 03:35:21;;;;;;;5.07;2.40;;;;;;;11.53;99.90;99342.75;6047935;28;20038;-74
2023/03/24 03:38:22;;;;;;;6.13;2.80;;;;;;;11.52;100.00;99341.94;6040726;28;20096;-74
2023/03/24 03:41:18;;;;;;;4.82;2.58;;;;;;;11.60;100.00;99355.13;6043809;28;20100;-74
2023/03/24 03:44:13;;;;;;;5.15;2.15;;;;;;;11.57;100.00;99349.34;6047929;28;20037;-74
2023/03/24 03:47:08;;;;;;;5.23;1.87;;;;;;;11.64;100.00;99351.06;6049438;28;20041;-74
2023/03/24 03:50:07;;;;;;;3.70;2.00;;;;;;;11.63;100.00;99344.09;6047901;28;20629;-73
2023/03/24 03:53:04;;;;;;;5.40;2.50;;;;;;;11.72;99.84;99343.03;6047859;28;20469;-73
2023/03/24 03:55:59;;;;;;;3.80;2.22;;;;;;;11.65;99.87;99325.34;6047774;28;20042;-73
2023/03/24 03:58:54;;;;;;;4.23;2.37;;;;;;;11.66;99.88;99319.03;6047712;28;20108;-72
2023/03/24 04:01:50;;;;;;;4.87;2.40;;;;;;;11.68;100.00;99323.13;6048143;28;20429;-72
2023/03/24 04:04:59;;;;;;;5.53;2.33;;;;;;;11.48;100.00;99306.16;6048625;28;20612;-74
2023/03/24 04:08:07;;;;;;;5.63;2.97;;;;;;;11.55;100.00;99327.47;6047765;28;20038;-73
2023/03/24 04:11:24;;;;;;;5.47;2.47;;;;;;;11.46;100.00;99318.78;6047654;28;20038;-73
2023/03/24 04:14:30;;;;;;;4.18;2.50;;;;;;;11.44;100.00;99312.81;6044930;28;20065;-71
2023/03/24 04:18:01;;;;;;;5.90;3.03;;;;;;;11.41;100.00;99301.78;6040287;28;20410;-72
2023/03/24 04:21:08;;;;;;;6.93;3.13;;;;;;;11.34;100.00;99307.00;6047818;28;20084;-72
2023/03/24 04:24:39;;;;;;;8.57;3.20;;;;;;;11.25;100.00;99297.50;6048700;28;20061;-72
2023/03/24 04:28:08;;;;;;;5.88;3.03;;;;;;;11.22;100.00;99306.63;6045612;28;20103;-72
2023/03/24 04:31:15;;;;;;;7.05;3.80;;;;;;;11.15;100.00;99281.03;6051449;28;20120;-71
2023/03/24 04:34:24;;;;;;;6.30;3.60;;;;;;;11.14;100.00;99268.78;6050632;28;20045;-72
2023/03/24 04:37:24;;;;;;;7.75;4.30;;;;;;;11.15;100.00;99273.91;6052387;28;20033;-72
2023/03/24 04:40:21;;;;;;;6.68;3.47;;;;;;;11.09;100.00;99257.88;6052734;28;20087;-72
2023/03/24 04:43:19;;;;;;;8.18;3.92;;;;;;;11.19;100.00;99269.06;6051619;28;20048;-71
2023/03/24 04:46:17;;;;;;;8.23;4.35;;;;;;;11.19;100.00;99234.56;6051190;28;20034;-72
2023/03/24 04:49:12;;;;;;;8.88;3.75;;;;;;;11.21;100.00;99237.84;6050765;28;20034;-73
2023/03/24 04:52:08;;;;;;;6.60;4.13;;;;;;;11.31;100.00;99248.97;6051441;28;20520;-72
2023/03/24 04:55:28;;;;;;;10.17;3.63;;;;;;;11.37;100.00;99253.53;6052081;28;20038;-72
2023/03/24 04:58:23;;;;;;;;;;;;;;;11.41;100.00;99248.69;6052836;28;20030;-72
2023/03/24 05:01:21;;;;;;;6.87;3.07;;;;;;;11.41;100.00;99228.28;6052099;28;19972;-73
2023/03/24 05:04:18;;;;;;;7.10;3.42;;;;;;;11.50;100.00;99243.06;6051100;28;20037;-72
2023/03/24 05:07:14;;;;;;;7.72;3.95;;;;;;;11.43;100.00;99226.25;6051569;28;20460;-72
2023/03/24 05:10:10;;;;;;;6.47;3.30;;;;;;;11.60;100.00;99224.19;6051537;28;20087;-72
2023/03/24 05:13:05;;;;;;;4.80;2.88;;;;;;;11.62;100.00;99222.97;6051377;28;20069;-72
2023/03/24 05:16:01;;;;;;;8.48;3.45;;;;;;;11.66;100.00;99234.06;6051273;28;20489;-72
2023/03/24 05:18:56;;;;;;;6.55;3.45;;;;;;;11.71;100.00;99226.38;6050657;28;20038;-72
2023/03/24 05:21:53;;;;;;;5.63;3.27;;;;;;;11.70;100.00;99212.28;6050661;28;20034;-72
2023/03/24 05:24:48;;;;;;;7.68;3.65;;;;;;;11.69;100.00;99199.16;6050528;28;20037;-72
2023/03/24 05:27:44;;;;;;;6.30;3.77;;;;;;;11.74;100.00;99213.53;6051732;28;20061;-72
2023/03/24 05:30:39;;;;;;;6.90;3.30;;;;;;;11.74;100.00;99197.59;6051313;28;20052;-74
2023/03/24 05:33:35;;;;;;;6.73;3.50;;;;;;;11.86;100.00;99206.69;6050478;28;20041;-73
2023/03/24 05:36:30;;;;;;;8.07;3.60;;;;;;;11.92;100.00;99207.75;6050419;28;20764;-73
2023/03/24 05:39:25;;;;;;;6.47;3.10;;;;;;;11.86;100.00;99214.66;6050189;28;20037;-74
2023/03/24 05:42:21;;;;;;;7.37;2.90;;;;;;;11.91;100.00;99198.13;6048850;28;20383;-73
2023/03/24 05:45:16;;;;;;;5.47;3.10;;;;;;;12.00;100.00;99214.78;6051000;28;20486;-74
2023/03/24 05:48:12;;;;;;;6.63;3.03;;;;;;;11.97;100.00;99185.94;6050997;28;20026;-73
2023/03/24 05:51:07;;;;;;;5.47;2.70;;;;;;;12.04;100.00;99211.53;6051161;28;20281;-74
2023/03/24 05:54:04;;;;;;;6.10;3.45;;;;;;;11.96;100.00;99185.09;6050177;28;20072;-72
2023/03/24 05:57:00;;;;;;;6.85;3.53;;;;;;;11.96;100.00;99194.94;6051069;28;20045;-74
2023/03/24 05:59:56;;;;;;;9.48;3.53;;;;;;;11.93;100.00;99186.31;6050840;28;20038;-74
2023/03/24 06:02:51;;;;;;;6.93;2.85;;;;;;;12.03;100.00;99179.84;6050201;28;20058;-73
2023/03/24 06:05:48;;;;;;;5.03;3.03;;;;;;;12.10;99.55;99180.72;6050595;28;20041;-73
2023/03/24 06:08:46;;;;;;;6.07;3.00;;;;;;;12.17;99.42;99181.59;6050580;28;20105;-74
2023/03/24 06:11:44;;;;;;;5.25;2.88;;;;;;;12.32;98.24;99195.59;6049521;28;20049;-73
2023/03/24 06:14:39;;;;;;;5.18;2.55;;;;;;;12.35;97.71;99184.56;6049563;28;20034;-73
2023/03/24 06:17:36;;;;;;;4.97;2.83;;;;;;;12.39;97.13;99191.16;6050568;28;20370;-74
2023/03/24 06:20:31;;;;;;;5.35;2.55;;;;;;;12.32;97.04;99184.97;6050070;28;20038;-73
2023/03/24 06:23:27;;;;;;;7.75;2.85;;;;;;;12.46;97.20;99199.97;6049593;28;20065;-74
2023/03/24 06:26:22;;;;;;;5.80;3.20;;;;;;;12.45;96.63;99201.00;6050400;28;20042;-73
2023/03/24 06:29:18;;;;;;;5.63;2.63;;;;;;;12.49;96.81;99205.75;6049622;28;20112;-73
2023/03/24 06:32:13;;;;;;;4.00;2.70;;;;;;;12.43;97.64;99197.72;6049900;28;20188;-73
2023/03/24 06:35:09;;;;;;;5.00;2.70;;;;;;;12.45;97.77;99203.66;6050052;28;20037;-73
2023/03/24 06:38:05;;;;;;;5.53;3.58;;;;;;;12.23;99.88;99215.38;6049767;28;20308;-73
2023/03/24 06:41:02;;;;;;;6.03;3.80;;;;;;;12.00;100.00;99222.75;6049961;28;20055;-73
2023/03/24 06:43:58;;;;;;;8.20;3.35;;;;;;;11.83;100.00;99212.38;6049169;28;20041;-73
2023/03/24 06:46:53;;;;;;;5.68;3.15;;;;;;;11.83;100.00;99212.38;6048809;28;20551;-72
2023/03/24 06:49:48;;;;;;;6.17;3.67;;;;;;;11.68;100.00;99201.00;6049680;28;20046;-72
2023/03/24 06:52:43;;;;;;;6.73;3.63;;;;;;;11.68;100.00;99224.88;6049046;28;20107;-70
2023/03/24 06:55:39;;;;;;;7.47;3.93;;;;;;;11.58;100.00;99236.81;6048908;28;20034;-71
2023/03/24 06:58:35;;;;;;;7.45;3.85;;;;;;;11.48;100.00;99242.44;6049657;28;20112;-72
2023/03/24 07:01:31;;;;;;;8.38;4.32;;;;;;;11.45;100.00;99245.47;6049545;28;20042;-72
2023/03/24 07:04:26;;;;;;;7.53;4.05;;;;;;;11.32;100.00;99234.72;6048972;28;20107;-71
2023/03/24 07:07:23;;;;;;;7.90;4.35;;;;;;;11.31;100.00;99233.06;6049600;28;20041;-72
2023/03/24 07:10:20;;;;;;;9.77;4.35;;;;;;;11.38;100.00;99249.88;6048547;28;20057;-72
2023/03/24 07:13:15;;;;;;;7.13;4.03;;;;;;;11.42;100.00;99259.09;6048842;28;20029;-72
2023/03/24 07:16:11;;;;;;;8.70;4.00;;;;;;;11.41;100.00;99254.81;6049509;28;20481;-72
2023/03/24 07:19:06;;;;;;;7.00;4.17;;;;;;;11.36;100.00;99258.03;6049603;28;20493;-71
2023/03/24 07:22:02;;;;;;;6.53;3.40;;;;;;;11.40;100.00;99279.72;6048250;28;20417;-71
2023/03/24 07:25:00;;;;;;;7.47;3.70;;;;;;;11.37;100.00;99317.25;6049230;28;20063;-71
2023/03/24 07:27:55;;;;;;;6.22;3.30;;;;;;;11.28;100.00;99321.00;6049299;28;20339;-70
2023/03/24 07:30:51;;;;;;;5.93;3.10;;;;;;;11.18;100.00;99309.84;6041509;28;20066;-71
2023/03/24 07:33:46;;;;;;;5.07;2.77;;;;;;;11.00;100.00;99293.50;6048463;28;20291;-72
2023/03/24 07:36:41;;;;;;;3.47;2.07;;;;;;;10.96;100.00;99310.75;6049391;28;20684;-72
2023/03/24 07:39:36;;;;;;;3.77;2.00;;;;;;;10.98;100.00;99327.34;6049124;28;20030;-72
2023/03/24 07:42:32;;;;;;;4.67;2.10;;;;;;;10.91;100.00;99311.31;6048454;28;20379;-71
2023/03/24 07:45:27;;;;;;;4.70;2.07;;;;;;;11.05;100.00;99318.47;6049492;28;20080;-72
2023/03/24 07:48:24;;;;;;;3.77;2.03;;;;;;;11.07;100.00;99339.50;6049538;28;20038;-73
2023/03/24 07:51:19;;;;;;;5.38;2.10;;;;;;;11.18;100.00;99357.59;6048815;28;20096;-73
2023/03/24 07:54:15;;;;;;;7.10;2.00;;;;;;;11.22;100.00;99359.69;6048527;28;20046;-73
2023/03/24 07:57:10;;;;;;;3.50;1.83;;;;;;;11.26;100.00;99360.16;6048449;28;20053;-72
2023/03/24 08:00:14;;;;;;;3.13;1.60;;;;;;;11.29;100.00;99351.84;6053454;28;20068;-73
2023/03/24 08:03:13;;;;;;;3.67;1.73;;;;;;;11.33;100.00;99369.06;6052520;28;20424;-72
2023/03/24 08:06:09;;;;;;;3.47;2.13;;;;;;;11.42;100.00;99365.28;6053267;28;20070;-72
2023/03/24 08:09:05;;;;;;;2.50;1.35;;;;;;;11.49;100.00;99363.56;6052359;28;20038;-73
2023/03/24 08:12:00;;;;;;;3.35;1.13;;;;;;;11.69;100.00;99372.59;6051101;28;20048;-72
2023/03/24 08:14:56;;;;;;;3.57;1.10;;;;;;;11.74;98.33;99386.13;6053117;28;20045;-72
2023/03/24 08:17:51;;;;;;;2.00;1.00;;;;;;;11.68;95.75;99386.88;6052567;28;20541;-72
2023/03/24 08:20:48;;;;;;;1.67;0.93;;;;;;;11.59;94.38;99393.28;6052752;28;20113;-73
2023/03/24 08:23:43;;;;;;;1.13;0.70;;;;;;;11.67;93.32;99387.88;6043613;28;20038;-73
2023/03/24 08:26:39;;;;;;;2.67;1.00;;;;;;;12.15;91.84;99407.66;6052246;28;20040;-73
2023/03/24 08:29:34;;;;;;;1.93;1.00;;;;;;;12.24;89.23;99389.75;6053303;28;20087;-73
2023/03/24 08:32:29;;;;;;;1.55;0.90;;;;;;;12.48;88.70;99392.03;6051123;28;20401;-73
2023/03/24 08:35:28;;;;;;;1.38;0.70;;;;;;;12.67;86.81;99418.00;6053233;28;20036;-73
2023/03/24 08:38:29;;;;;;;1.25;0.70;;;;;;;12.65;85.21;99416.53;6052433;28;20030;-73
2023/03/24 08:41:33;;;;;;;1.27;0.80;;;;;;;12.74;82.21;99424.22;6053116;28;20596;-73
2023/03/24 08:44:29;;;;;;;1.40;0.70;;;;;;;13.00;83.55;99413.78;6051893;28;20038;-73
2023/03/24 08:47:24;;;;;;;2.83;0.80;;;;;;;12.94;81.69;99435.81;6051637;28;20092;-72
2023/03/24 08:50:22;;;;;;;3.45;0.90;;;;;;;13.19;83.06;99432.75;6052433;28;20040;-73
2023/03/24 08:53:18;;;;;;;4.03;0.93;;;;;;;13.28;75.76;99423.63;6051624;28;20401;-73
2023/03/24 08:56:13;;;;;;;0.70;0.52;;;;;;;13.40;73.74;99432.72;6052379;28;20042;-72
2023/03/24 08:59:08;;;;;;;2.78;0.80;;;;;;;13.54;74.57;99431.75;6050916;28;20041;-73
2023/03/24 09:02:04;;;;;;;3.40;0.80;;;;;;;13.73;74.98;99463.84;6050926;28;20041;-73
2023/03/24 09:04:59;;;;;;;2.80;0.80;;;;;;;13.73;73.21;99461.19;6051801;28;20025;-72
2023/03/24 09:07:55;;;;;;;1.48;0.63;;;;;;;13.63;73.28;99460.72;6051844;28;20437;-73
2023/03/24 09:10:50;;;;;;;5.28;0.75;;;;;;;13.54;74.06;99466.38;6051245;28;20034;-73
2023/03/24 09:13:46;;;;;;;2.70;0.80;;;;;;;13.50;73.48;99486.44;6051032;28;20041;-73
2023/03/24 09:16:42;;;;;;;5.00;0.77;;;;;;;13.44;73.09;99479.22;6051095;28;20284;-73
2023/03/24 09:19:38;;;;;;;2.67;0.30;;;;;;;13.67;73.39;99495.75;6044931;28;20433;-73
2023/03/24 09:22:35;;;;;;;3.20;0.83;;;;;;;13.49;69.74;99490.13;6050727;28;20064;-73
2023/03/24 09:25:31;;;;;;;1.52;0.60;;;;;;;13.62;71.14;99514.19;6052051;28;20037;-73
2023/03/24 09:28:26;;;;;;;2.67;0.77;;;;;;;13.69;69.53;99488.41;6051604;28;20040;-72
2023/03/24 09:31:21;;;;;;;3.58;0.82;;;;;;;13.67;70.24;99495.75;6051335;28;20030;-72
2023/03/24 09:34:17;;;;;;;3.47;0.93;;;;;;;13.88;70.23;99482.38;6050452;28;20041;-73
2023/03/24 09:37:12;;;;;;;2.93;0.90;;;;;;;13.76;70.20;99488.44;6051352;28;20128;-73
2023/03/24 09:40:17;;;;;;;3.22;0.75;;;;;;;13.40;70.91;99483.31;6051090;28;20030;-73
2023/03/24 09:43:12;;;;;;;2.75;0.80;;;;;;;13.29;69.48;99487.31;6048965;28;20048;-72
2023/03/24 09:46:14;;;;;;;2.60;0.83;;;;;;;13.39;69.89;99479.81;6050688;28;20030;-72
2023/03/24 09:49:15;;;;;;;2.78;1.48;;;;;;;13.53;68.93;99499.38;6046855;28;20481;-72
2023/03/24 09:52:12;;;;;;;5.03;1.10;;;;;;;13.33;70.34;99490.41;6049915;28;20508;-72
2023/03/24 09:55:15;;;;;;;5.43;0.90;;;;;;;13.38;69.49;99515.44;6051175;28;20470;-73
2023/03/24 09:58:11;;;;;;;3.67;0.77;;;;;;;13.52;68.01;99498.56;6049896;28;20030;-73
2023/03/24 10:01:14;;;;;;;2.50;0.73;;;;;;;13.67;67.39;99495.75;6050712;28;20385;-73
2023/03/24 10:04:15;;;;;;;2.38;0.80;;;;;;;13.94;66.11;99502.88;6049772;28;20037;-73
2023/03/24 10:07:32;;;;;;;3.22;0.70;;;;;;;13.58;67.67;99518.25;6050772;28;20099;-73
2023/03/24 10:10:41;;;;;;;2.83;0.85;;;;;;;13.20;68.34;99524.94;6048462;28;20129;-72
2023/03/24 10:14:08;;;;;;;6.07;1.00;;;;;;;12.87;69.42;99513.94;6048445;28;20030;-72
2023/03/24 10:17:14;;;;;;;3.25;1.02;;;;;;;12.80;70.15;99519.19;6046989;28;20034;-72
2023/03/24 10:20:34;;;;;;;3.95;1.17;;;;;;;12.76;70.65;99531.25;6048097;28;20040;-73
2023/03/24 10:23:36;;;;;;;3.30;0.85;;;;;;;13.11;70.15;99524.22;6049682;28;20470;-73
2023/03/24 10:26:39;;;;;;;6.07;1.30;;;;;;;12.95;69.95;99511.16;6050651;28;20029;-72
2023/03/24 10:29:35;;;;;;;5.82;1.40;;;;;;;12.99;69.05;99497.28;6044168;28;20433;-73
2023/03/24 10:32:32;;;;;;;2.90;1.17;;;;;;;13.08;69.56;99516.63;6047906;28;20041;-73
2023/03/24 10:35:36;;;;;;;3.55;1.00;;;;;;;13.77;66.36;99528.22;6049651;28;20053;-73
2023/03/24 10:38:31;;;;;;;5.85;1.58;;;;;;;13.71;67.16;99524.50;6048718;28;20048;-72
2023/03/24 10:41:28;;;;;;;5.80;1.57;;;;;;;14.08;66.84;99525.09;6050077;28;20038;-73
2023/03/24 10:44:24;;;;;;;7.43;1.30;;;;;;;14.45;64.35;99529.22;6049378;28;20034;-72
2023/03/24 10:47:24;;;;;;;6.88;2.00;;;;;;;14.83;63.68;99530.34;6048599;28;20519;-73
2023/03/24 10:50:24;;;;;;;4.43;1.40;;;;;;;14.52;62.85;99527.38;6048878;28;20135;-73
2023/03/24 10:53:20;;;;;;;5.50;1.10;;;;;;;14.57;61.91;99539.09;6049290;28;20044;-73
2023/03/24 10:56:20;;;;;;;6.03;1.50;;;;;;;14.97;62.94;99537.34;6048437;28;20133;-72
2023/03/24 10:59:31;;;;;;;10.23;2.83;;;;;;;15.13;60.63;99536.97;6047949;28;20034;-72
2023/03/24 11:02:31;;;;;;;3.95;1.38;;;;;;;14.74;62.08;99536.88;6048583;28;20100;-73
2023/03/24 11:05:29;;;;;;;5.38;1.48;;;;;;;15.00;60.16;99544.13;6049948;28;20539;-72
2023/03/24 11:08:36;;;;;;;4.65;1.30;;;;;;;15.14;59.33;99543.09;6046610;28;20034;-73
2023/03/24 11:11:31;;;;;;;4.70;1.30;;;;;;;15.65;58.72;99552.22;6048836;28;20044;-73
2023/03/24 11:14:27;;;;;;;6.63;1.60;;;;;;;15.45;57.93;99546.84;6045815;28;20030;-72
2023/03/24 11:17:22;;;;;;;2.90;1.40;;;;;;;14.94;59.00;99559.13;6048723;28;20285;-73
2023/03/24 11:20:19;;;;;;;4.75;1.48;;;;;;;14.41;59.30;99557.28;6049492;28;20472;-72
2023/03/24 11:23:32;;;;;;;4.45;1.30;;;;;;;14.39;60.15;99559.34;6048586;28;20092;-72
2023/03/24 11:26:29;;;;;;;5.50;1.40;;;;;;;14.20;59.83;99548.34;6043638;28;20033;-72
2023/03/24 11:29:26;;;;;;;6.40;1.58;;;;;;;14.27;60.79;99543.88;6049132;28;20367;-73
2023/03/24 11:32:26;;;;;;;5.50;1.50;;;;;;;14.14;62.12;99538.47;6043916;28;20045;-72
2023/03/24 11:35:22;;;;;;;6.22;1.33;;;;;;;14.79;60.90;99527.25;6053205;28;20029;-73
2023/03/24 11:38:20;;;;;;;6.63;1.38;;;;;;;15.76;60.74;99532.03;6052025;28;20096;-73
2023/03/24 11:41:20;;;;;;;5.97;1.40;;;;;;;16.05;56.27;99543.06;6052965;28;20030;-72
2023/03/24 11:44:23;;;;;;;6.28;1.40;;;;;;;16.03;56.30;99534.41;6053104;28;20065;-72
2023/03/24 11:47:27;;;;;;;4.45;1.02;;;;;;;15.57;52.64;99524.88;6051873;28;20076;-73
2023/03/24 11:50:31;;;;;;;3.00;0.98;;;;;;;15.57;52.06;99530.22;6034010;28;20037;-72
2023/03/24 11:53:30;;;;;;;3.42;1.10;;;;;;;15.72;53.72;99528.94;6053031;28;20030;-72
2023/03/24 11:56:29;;;;;;;7.18;1.48;;;;;;;16.28;53.61;99541.78;6045118;28;20038;-72
2023/03/24 11:59:30;;;;;;;5.45;1.45;;;;;;;16.47;53.23;99540.88;6051829;28;20381;-72
2023/03/24 12:02:50;;;;;;;5.30;1.33;;;;;;;16.52;51.04;99528.47;6050627;28;20041;-73
2023/03/24 12:06:00;;;;;;;4.47;1.10;;;;;;;16.30;50.29;99508.44;6053333;28;20052;-73
2023/03/24 12:09:14;;;;;;;3.17;1.50;;;;;;;15.95;51.55;99536.53;6052968;28;20400;-73
2023/03/24 12:12:35;;;;;;;7.28;1.45;;;;;;;15.72;52.11;99526.28;6048126;28;20045;-72
2023/03/24 12:15:46;;;;;;;4.22;1.00;;;;;;;15.68;50.54;99527.72;6051908;28;20488;-72
2023/03/24 12:18:57;;;;;;;4.68;1.15;;;;;;;15.61;51.17;99539.44;6052863;28;20085;-72
2023/03/24 12:22:05;;;;;;;3.92;1.20;;;;;;;15.19;53.42;99535.31;6051888;28;20141;-74
2023/03/24 12:25:15;;;;;;;4.30;1.50;;;;;;;15.20;56.94;99552.97;6051925;28;20045;-73
2023/03/24 12:28:11;;;;;;;8.18;1.70;;;;;;;14.96;57.87;99557.06;6050381;28;20037;-73
2023/03/24 12:31:27;;;;;;;5.78;1.55;;;;;;;14.64;61.46;99563.97;6052873;28;20038;-73
2023/03/24 12:34:45;;;;;;;8.02;1.77;;;;;;;14.56;60.78;99572.16;6051888;28;20042;-74
2023/03/24 12:38:06;;;;;;;5.93;1.40;;;;;;;14.53;59.69;99572.53;6051783;28;20037;-72
2023/03/24 12:41:19;;;;;;;4.53;1.42;;;;;;;14.34;60.44;99577.78;6046813;28;20045;-73
2023/03/24 12:44:39;;;;;;;6.72;1.52;;;;;;;14.23;60.16;99595.97;6049680;28;20478;-73
2023/03/24 12:47:56;;;;;;;7.30;1.50;;;;;;;14.15;60.27;99576.63;6052538;28;20041;-73
2023/03/24 12:51:25;;;;;;;3.80;1.10;;;;;;;14.27;60.00;99589.19;6049676;28;20038;-72
2023/03/24 12:54:33;;;;;;;6.60;1.55;;;;;;;14.27;58.90;99583.88;6051803;28;20045;-73
2023/03/24 12:57:40;;;;;;;4.93;1.27;;;;;;;14.05;59.37;99584.97;6051024;28;20469;-73
2023/03/24 13:00:40;;;;;;;3.03;1.13;;;;;;;14.30;60.55;99574.66;6050965;28;20045;-73
2023/03/24 13:03:40;;;;;;;3.88;1.33;;;;;;;14.69;59.08;99584.69;6051293;28;20080;-74
2023/03/24 13:06:37;;;;;;;;;;;;;;;14.48;58.81;99587.50;6051732;28;20033;-73
2023/03/24 13:09:54;;;;;;;2.90;1.10;;;;;;;14.34;59.65;99578.63;6042799;28;19918;-73
2023/03/24 13:13:03;;;;;;;5.28;1.13;;;;;;;14.32;60.98;99581.47;6051305;28;20045;-73
2023/03/24 13:16:12;;;;;;;3.67;1.05;;;;;;;14.12;60.35;99580.53;6043604;28;20401;-74
2023/03/24 13:19:15;;;;;;;4.25;1.20;;;;;;;14.04;60.77;99577.19;6051431;28;20030;-73
2023/03/24 13:22:15;;;;;;;4.38;1.15;;;;;;;13.91;59.89;99555.78;6049634;28;20041;-73
2023/03/24 13:25:24;;;;;;;4.50;1.13;;;;;;;14.06;60.38;99549.31;6050515;28;20044;-73
2023/03/24 13:28:24;;;;;;;8.35;1.48;;;;;;;14.25;59.38;99526.41;6050405;28;20033;-74
2023/03/24 13:31:21;;;;;;;5.50;1.75;;;;;;;15.11;58.57;99539.00;6051573;28;20083;-73
2023/03/24 13:34:30;;;;;;;3.13;1.10;;;;;;;15.01;56.50;99533.25;6049521;28;20042;-73
2023/03/24 13:37:32;;;;;;;2.55;0.80;;;;;;;14.91;57.28;99530.16;6044930;28;20467;-73
2023/03/24 13:40:31;;;;;;;7.90;1.10;;;;;;;14.90;57.41;99520.47;6049829;28;20033;-72
2023/03/24 13:43:28;;;;;;;7.03;1.10;;;;;;;15.04;58.66;99540.84;6045101;28;20034;-74
2023/03/24 13:46:24;;;;;;;5.85;1.05;;;;;;;15.18;57.84;99545.19;6049874;28;20507;-73
2023/03/24 13:49:20;;;;;;;4.03;0.80;;;;;;;15.17;55.17;99543.53;6051426;28;20038;-74
2023/03/24 13:52:36;;;;;;;4.27;1.10;;;;;;;14.94;55.57;99552.94;6049921;28;20034;-72
2023/03/24 13:55:35;;;;;;;4.60;1.00;;;;;;;14.90;55.73;99563.19;6050744;28;20666;-74
2023/03/24 13:59:05;;;;;;;3.67;0.90;;;;;;;14.72;56.80;99574.47;6049499;28;20030;-73
2023/03/24 14:02:21;;;;;;;5.45;1.05;;;;;;;14.72;56.51;99565.63;6017194;28;20033;-73
2023/03/24 14:05:22;;;;;;;5.40;1.10;;;;;;;14.66;55.84;99577.91;6051043;28;20040;-73
2023/03/24 14:08:18;;;;;;;5.85;1.10;;;;;;;14.53;56.03;99569.88;6050071;28;20034;-73